Time;durP1;ratioP1;P1;durP2;ratioP2;P2;SDS_P1;SDS_P2;PMS_P1;PMS_P2;Temp;Humidity;BMP_temperature;BMP_pressure;BME280_temperature;BME280_humidity;BME280_pressure;Samples;Min_cycle;Max_cycle;Signal;HPM_P1;HPM_P2
2022/11/28 00:00:34;;;;;;;15.03;12.83;;;7.50;99.90;;;;;;5091749;28;20238;-77
2022/11/28 00:03:03;;;;;;;16.17;12.73;;;7.60;99.90;;;;;;5091302;28;20292;-76
2022/11/28 00:05:29;;;;;;;14.80;12.37;;;7.60;99.90;;;;;;5091574;28;20204;-76
2022/11/28 00:07:56;;;;;;;14.50;12.37;;;7.50;99.90;;;;;;5092167;28;20228;-77
2022/11/28 00:10:23;;;;;;;15.07;12.90;;;7.60;99.90;;;;;;5091756;28;20665;-77
2022/11/28 00:12:50;;;;;;;14.80;12.10;;;7.60;99.90;;;;;;5102357;28;20207;-77
2022/11/28 00:15:17;;;;;;;14.77;11.97;;;7.60;99.90;;;;;;5115785;28;20192;-77
2022/11/28 00:17:44;;;;;;;14.57;11.63;;;7.50;99.90;;;;;;5114916;28;20587;-77
2022/11/28 00:20:13;;;;;;;14.67;11.80;;;7.60;99.90;;;;;;5115742;28;20196;-77
2022/11/28 00:22:40;;;;;;;13.97;11.80;;;7.60;99.90;;;;;;5101515;28;20212;-78
2022/11/28 00:25:07;;;;;;;15.27;12.03;;;7.60;99.90;;;;;;5099058;28;20788;-76
2022/11/28 00:27:34;;;;;;;15.60;12.20;;;7.50;99.90;;;;;;5115803;28;20196;-77
2022/11/28 00:30:01;;;;;;;12.87;11.57;;;7.60;99.90;;;;;;5106733;28;20403;-78
2022/11/28 00:32:28;;;;;;;12.97;11.37;;;7.60;99.90;;;;;;5094786;28;20223;-76
2022/11/28 00:34:55;;;;;;;14.00;11.30;;;7.60;99.90;;;;;;5095368;28;20199;-76
2022/11/28 00:37:23;;;;;;;14.20;12.10;;;7.60;99.90;;;;;;5094368;28;20858;-76
2022/11/28 00:39:50;;;;;;;15.07;12.03;;;7.60;99.90;;;;;;5094662;28;20205;-77
2022/11/28 00:42:19;;;;;;;14.50;11.53;;;7.60;99.90;;;;;;5095048;28;20257;-77
2022/11/28 00:44:47;;;;;;;13.93;11.40;;;7.60;99.90;;;;;;5093892;28;20212;-78
2022/11/28 00:47:14;;;;;;;14.10;11.87;;;7.60;99.90;;;;;;5093685;28;20290;-76
2022/11/28 00:49:40;;;;;;;13.20;11.80;;;7.60;99.90;;;;;;5094600;28;20231;-76
2022/11/28 00:52:08;;;;;;;15.00;11.80;;;7.60;99.90;;;;;;5094119;28;20291;-77
2022/11/28 00:54:36;;;;;;;13.97;11.93;;;7.60;99.90;;;;;;5094665;28;20208;-77
2022/11/28 00:57:03;;;;;;;14.90;11.90;;;7.60;99.90;;;;;;5094824;28;20569;-76
2022/11/28 00:59:30;;;;;;;13.57;11.27;;;7.60;99.90;;;;;;5094126;28;20596;-77
2022/11/28 01:01:57;;;;;;;14.13;11.03;;;7.60;99.90;;;;;;5094466;28;20242;-78
2022/11/28 01:04:24;;;;;;;13.43;11.23;;;7.70;99.90;;;;;;5094227;28;20589;-78
2022/11/28 01:06:51;;;;;;;13.90;11.87;;;7.70;99.90;;;;;;5093319;28;20279;-75
2022/11/28 01:09:21;;;;;;;11.97;10.70;;;7.70;99.90;;;;;;5093542;28;20545;-76
2022/11/28 01:11:51;;;;;;;13.67;11.27;;;7.70;99.90;;;;;;5093971;28;20608;-77
2022/11/28 01:14:21;;;;;;;13.87;11.47;;;7.70;99.90;;;;;;5094628;28;20488;-77
2022/11/28 01:16:48;;;;;;;12.30;10.63;;;7.70;99.90;;;;;;5094191;28;20678;-77
2022/11/28 01:19:15;;;;;;;13.53;11.43;;;7.70;99.90;;;;;;5093552;28;20584;-78
2022/11/28 01:21:42;;;;;;;13.60;11.93;;;7.70;99.90;;;;;;5093933;28;20588;-78
2022/11/28 01:24:09;;;;;;;15.10;12.87;;;7.70;99.90;;;;;;5094200;28;20201;-78
2022/11/28 01:26:38;;;;;;;14.03;12.00;;;7.70;99.90;;;;;;5093341;28;20203;-78
2022/11/28 01:29:08;;;;;;;14.07;12.10;;;7.70;99.90;;;;;;5094059;28;20225;-78
2022/11/28 01:31:35;;;;;;;15.70;12.40;;;7.70;99.90;;;;;;5093735;28;20217;-78
2022/11/28 01:34:02;;;;;;;14.50;12.03;;;7.80;99.90;;;;;;5092901;28;20596;-77
2022/11/28 01:36:29;;;;;;;13.20;11.10;;;7.70;99.90;;;;;;5093903;28;20204;-76
2022/11/28 01:38:56;;;;;;;14.93;12.13;;;7.80;99.90;;;;;;5093873;28;20580;-76
2022/11/28 01:41:25;;;;;;;16.90;12.57;;;7.80;99.90;;;;;;5093489;28;20291;-77
2022/11/28 01:44:31;;;;;;;16.27;13.53;;;7.80;99.90;;;;;;5093660;28;20203;-78
2022/11/28 01:47:00;;;;;;;14.03;11.90;;;7.80;99.90;;;;;;5080853;28;20221;-76
2022/11/28 01:49:31;;;;;;;14.40;12.20;;;7.80;99.90;;;;;;5093595;28;20218;-78
2022/11/28 01:52:01;;;;;;;15.53;12.87;;;7.80;99.90;;;;;;5093469;28;20661;-78
2022/11/28 01:54:30;;;;;;;14.97;12.70;;;7.80;99.90;;;;;;5093223;28;20504;-76
2022/11/28 01:57:02;;;;;;;16.27;12.20;;;7.90;99.90;;;;;;5093618;28;20204;-77
2022/11/28 01:59:33;;;;;;;16.83;13.03;;;7.90;99.90;;;;;;5093540;28;20201;-76
2022/11/28 02:02:03;;;;;;;14.67;12.00;;;7.80;99.90;;;;;;5052591;28;20285;-77
2022/11/28 02:04:30;;;;;;;16.07;13.53;;;7.80;99.90;;;;;;5053609;28;20228;-77
2022/11/28 02:06:57;;;;;;;16.50;13.30;;;7.90;99.90;;;;;;5053016;28;20237;-77
2022/11/28 02:09:24;;;;;;;15.50;13.13;;;7.90;99.90;;;;;;5052162;28;20231;-77
2022/11/28 02:12:18;;;;;;;14.90;12.53;;;7.90;99.90;;;;;;5052956;28;20228;-77
2022/11/28 02:15:09;;;;;;;16.50;12.47;;;7.90;99.90;;;;;;5052896;28;20197;-78
2022/11/28 02:17:49;;;;;;;16.23;13.33;;;7.90;99.90;;;;;;5052762;28;20202;-78
2022/11/28 02:20:45;;;;;;;18.23;13.73;;;8.00;99.90;;;;;;5066481;28;20189;-78
2022/11/28 02:23:17;;;;;;;18.07;13.43;;;7.90;99.90;;;;;;5054586;28;20197;-78
2022/11/28 02:26:05;;;;;;;18.03;14.20;;;7.90;99.90;;;;;;5056847;28;20301;-77
2022/11/28 02:29:03;;;;;;;20.87;14.83;;;8.00;99.90;;;;;;5052815;28;20221;-77
2022/11/28 02:32:06;;;;;;;18.20;14.20;;;8.00;99.90;;;;;;5052732;28;20285;-78
2022/11/28 02:34:43;;;;;;;20.50;13.40;;;8.00;99.90;;;;;;5051804;28;20292;-77
2022/11/28 02:37:16;;;;;;;13.67;12.13;;;8.00;99.90;;;;;;5051966;28;20193;-78
2022/11/28 02:39:51;;;;;;;19.60;15.10;;;8.00;99.90;;;;;;5052289;28;20735;-78
2022/11/28 02:42:23;;;;;;;20.13;15.10;;;8.00;99.90;;;;;;5052244;28;20776;-77
2022/11/28 02:44:58;;;;;;;20.67;15.53;;;8.00;99.90;;;;;;5051635;28;20205;-77
2022/11/28 02:47:32;;;;;;;19.40;14.57;;;8.10;99.90;;;;;;5052168;28;20197;-77
2022/11/28 02:50:05;;;;;;;17.70;15.03;;;8.10;99.90;;;;;;5052062;28;20232;-77
2022/11/28 02:52:35;;;;;;;19.77;15.43;;;8.10;99.90;;;;;;5051510;28;20254;-77
2022/11/28 02:55:04;;;;;;;23.43;17.70;;;8.10;99.90;;;;;;5052027;28;20259;-77
2022/11/28 02:57:36;;;;;;;21.50;16.23;;;8.10;99.90;;;;;;5051519;28;20681;-75
2022/11/28 03:00:22;;;;;;;19.73;15.67;;;8.20;99.90;;;;;;5059944;28;20325;-76
2022/11/28 03:03:01;;;;;;;20.43;15.93;;;8.10;99.90;;;;;;5091359;28;20207;-78
2022/11/28 03:05:36;;;;;;;21.33;16.13;;;8.20;99.90;;;;;;5091352;28;20257;-77
2022/11/28 03:08:11;;;;;;;20.77;15.60;;;8.20;99.90;;;;;;5099032;28;20205;-82
2022/11/28 03:10:47;;;;;;;25.57;18.17;;;8.20;99.90;;;;;;5094541;28;20224;-76
2022/11/28 03:13:22;;;;;;;23.67;17.00;;;8.30;99.90;;;;;;5091339;28;20180;-78
2022/11/28 03:15:59;;;;;;;24.13;17.97;;;8.30;99.90;;;;;;5092115;28;20192;-76
2022/11/28 03:18:34;;;;;;;25.73;18.30;;;8.30;99.90;;;;;;5091518;28;20199;-76
2022/11/28 03:21:09;;;;;;;28.07;19.43;;;8.30;99.90;;;;;;5102576;28;20195;-76
2022/11/28 03:23:41;;;;;;;29.13;18.87;;;8.30;99.90;;;;;;5112354;28;20199;-76
2022/11/28 03:26:13;;;;;;;24.57;16.93;;;8.30;99.90;;;;;;5112342;28;20196;-77
2022/11/28 03:28:47;;;;;;;27.67;19.23;;;8.30;99.90;;;;;;5109411;28;20200;-76
2022/11/28 03:31:17;;;;;;;28.43;19.43;;;8.40;99.90;;;;;;5092102;28;20216;-76
2022/11/28 03:33:51;;;;;;;31.27;20.60;;;8.40;99.90;;;;;;5091071;28;20199;-77
2022/11/28 03:36:22;;;;;;;31.47;20.13;;;8.40;99.90;;;;;;5091509;28;20201;-77
2022/11/28 03:38:53;;;;;;;31.83;20.57;;;8.40;99.90;;;;;;5091785;28;20205;-77
2022/11/28 03:41:25;;;;;;;29.97;20.10;;;8.40;99.90;;;;;;5091204;28;20193;-77
2022/11/28 03:43:56;;;;;;;30.00;19.30;;;8.40;99.90;;;;;;5092301;28;20645;-77
2022/11/28 03:46:27;;;;;;;28.50;19.03;;;8.40;99.90;;;;;;5113820;28;20228;-77
2022/11/28 03:48:58;;;;;;;28.67;19.03;;;8.40;99.90;;;;;;5116764;28;20295;-77
2022/11/28 03:51:30;;;;;;;27.27;18.53;;;8.40;99.90;;;;;;5116021;28;20220;-77
2022/11/28 03:54:03;;;;;;;29.23;19.37;;;8.50;99.90;;;;;;5101988;28;20200;-77
2022/11/28 03:56:36;;;;;;;35.60;21.33;;;8.50;99.90;;;;;;5099214;28;20199;-77
2022/11/28 03:59:09;;;;;;;29.40;19.50;;;8.50;99.90;;;;;;5115589;28;20200;-75
2022/11/28 04:01:47;;;;;;;34.33;21.93;;;8.50;99.90;;;;;;5114367;28;20232;-78
2022/11/28 04:04:24;;;;;;;28.33;18.33;;;8.50;99.90;;;;;;5116060;28;20772;-77
2022/11/28 04:06:54;;;;;;;31.47;19.40;;;8.50;99.90;;;;;;5095562;28;20584;-78
2022/11/28 04:09:30;;;;;;;30.47;19.90;;;8.60;99.90;;;;;;5100918;28;20207;-77
2022/11/28 04:12:04;;;;;;;27.07;17.83;;;8.60;99.90;;;;;;5116157;28;20191;-78
2022/11/28 04:14:37;;;;;;;24.20;16.90;;;8.60;99.90;;;;;;5115739;28;20290;-77
2022/11/28 04:17:10;;;;;;;22.23;16.30;;;8.60;99.90;;;;;;5116099;28;20195;-76
2022/11/28 04:19:43;;;;;;;26.00;17.70;;;8.60;99.90;;;;;;5105187;28;20317;-77
2022/11/28 04:22:16;;;;;;;22.50;16.57;;;8.60;99.90;;;;;;5094561;28;20504;-77
2022/11/28 04:24:48;;;;;;;22.47;15.97;;;8.60;99.90;;;;;;5095552;28;20203;-77
2022/11/28 04:27:21;;;;;;;24.80;17.43;;;8.70;99.90;;;;;;5095412;28;20428;-77
2022/11/28 04:29:52;;;;;;;23.03;15.23;;;8.80;99.90;;;;;;5094497;28;20331;-77
2022/11/28 04:32:21;;;;;;;21.67;15.23;;;8.80;99.90;;;;;;5094370;28;20419;-77
2022/11/28 04:34:53;;;;;;;23.33;16.07;;;8.80;99.90;;;;;;5094737;28;20197;-78
2022/11/28 04:37:21;;;;;;;22.47;16.07;;;8.90;99.90;;;;;;5094651;28;20342;-75
2022/11/28 04:39:49;;;;;;;21.33;15.40;;;8.90;99.90;;;;;;5094589;28;20213;-81
2022/11/28 04:42:20;;;;;;;19.63;15.17;;;8.90;99.90;;;;;;5094833;28;20200;-78
2022/11/28 04:44:51;;;;;;;19.53;14.30;;;9.00;99.90;;;;;;5094466;28;20215;-78
2022/11/28 04:47:18;;;;;;;19.53;14.43;;;9.00;99.90;;;;;;5095033;28;20556;-76
2022/11/28 04:49:45;;;;;;;17.27;13.67;;;9.00;99.90;;;;;;5094422;28;20339;-77
2022/11/28 04:52:19;;;;;;;18.13;14.10;;;9.00;99.90;;;;;;5095100;28;20197;-77
2022/11/28 04:54:53;;;;;;;17.00;14.10;;;9.10;99.90;;;;;;5094489;28;20215;-78
2022/11/28 04:57:26;;;;;;;19.40;13.97;;;9.10;99.90;;;;;;5093479;28;20200;-76
2022/11/28 04:59:54;;;;;;;17.60;13.97;;;9.20;99.90;;;;;;5094652;28;20189;-76
2022/11/28 05:02:22;;;;;;;18.13;14.07;;;9.20;99.90;;;;;;5094735;28;20188;-77
2022/11/28 05:04:52;;;;;;;18.57;14.90;;;9.20;99.90;;;;;;5093948;28;20211;-78
2022/11/28 05:07:20;;;;;;;17.97;14.30;;;9.20;99.90;;;;;;5094352;28;20663;-78
2022/11/28 05:09:47;;;;;;;18.90;14.90;;;9.30;99.90;;;;;;5094389;28;20234;-76
2022/11/28 05:12:14;;;;;;;19.67;15.10;;;9.30;99.90;;;;;;5093743;28;20218;-77
2022/11/28 05:14:41;;;;;;;18.03;13.90;;;9.30;99.90;;;;;;5094478;28;20371;-76
2022/11/28 05:17:08;;;;;;;19.10;13.67;;;9.30;99.90;;;;;;5094040;28;20205;-77
2022/11/28 05:19:35;;;;;;;20.20;14.50;;;9.30;99.90;;;;;;5093673;28;20699;-77
2022/11/28 05:22:02;;;;;;;17.70;13.00;;;9.30;99.90;;;;;;5094004;28;20199;-77
2022/11/28 05:24:30;;;;;;;15.63;12.13;;;9.30;99.90;;;;;;5094306;28;20200;-77
2022/11/28 05:26:57;;;;;;;16.27;12.77;;;9.30;99.90;;;;;;5093844;28;20204;-77
2022/11/28 05:29:24;;;;;;;17.43;12.73;;;9.40;99.90;;;;;;5094560;28;20311;-76
2022/11/28 05:31:51;;;;;;;17.43;12.40;;;9.40;99.90;;;;;;5094021;28;20221;-76
2022/11/28 05:34:18;;;;;;;15.93;12.17;;;9.40;99.90;;;;;;5093461;28;20234;-77
2022/11/28 05:36:45;;;;;;;16.87;12.50;;;9.40;99.90;;;;;;5094024;28;20204;-76
2022/11/28 05:39:11;;;;;;;17.47;13.70;;;9.40;99.90;;;;;;5092760;28;20201;-77
2022/11/28 05:41:40;;;;;;;23.53;14.50;;;9.40;99.90;;;;;;5093488;28;20204;-78
2022/11/28 05:44:07;;;;;;;23.80;14.67;;;9.50;99.90;;;;;;5093710;28;20197;-77
2022/11/28 05:46:33;;;;;;;17.83;13.87;;;9.50;99.90;;;;;;5092111;28;20234;-76
2022/11/28 05:49:00;;;;;;;20.67;13.57;;;9.50;99.90;;;;;;5093858;28;20200;-76
2022/11/28 05:51:27;;;;;;;23.27;15.30;;;9.50;99.90;;;;;;5093877;28;20635;-76
2022/11/28 05:53:54;;;;;;;22.43;13.97;;;9.60;99.90;;;;;;5092974;28;20196;-77
2022/11/28 05:56:22;;;;;;;19.77;13.97;;;9.60;99.90;;;;;;5093897;28;20279;-78
2022/11/28 05:58:52;;;;;;;19.07;12.80;;;9.60;99.90;;;;;;5093413;28;20619;-78
2022/11/28 06:01:22;;;;;;;17.50;12.83;;;9.60;99.90;;;;;;5092379;28;20377;-77
2022/11/28 06:03:50;;;;;;;19.77;12.87;;;9.60;99.90;;;;;;5093277;28;20204;-77
2022/11/28 06:06:19;;;;;;;14.90;11.67;;;9.60;99.90;;;;;;5093054;28;20581;-76
2022/11/28 06:08:48;;;;;;;18.03;12.37;;;9.60;99.90;;;;;;5091695;28;20200;-76
2022/11/28 06:11:17;;;;;;;17.37;12.43;;;9.60;99.90;;;;;;5093352;28;20212;-76
2022/11/28 06:13:45;;;;;;;19.47;13.43;;;9.60;99.90;;;;;;5092946;28;20753;-78
2022/11/28 06:16:15;;;;;;;19.33;13.43;;;9.60;99.90;;;;;;5092530;28;20193;-76
2022/11/28 06:18:41;;;;;;;19.87;13.57;;;9.60;99.90;;;;;;5093204;28;20207;-76
2022/11/28 06:21:10;;;;;;;18.77;13.07;;;9.60;99.90;;;;;;5093360;28;20197;-76
2022/11/28 06:23:38;;;;;;;17.57;13.27;;;9.60;99.90;;;;;;5092566;28;20197;-76
2022/11/28 06:26:07;;;;;;;18.17;12.33;;;9.60;99.90;;;;;;5093166;28;20197;-76
2022/11/28 06:28:34;;;;;;;21.87;14.10;;;9.60;99.90;;;;;;5092525;28;20325;-77
2022/11/28 06:31:01;;;;;;;21.50;13.33;;;9.60;99.90;;;;;;5092993;28;20216;-77
2022/11/28 06:33:29;;;;;;;18.30;14.23;;;9.60;99.90;;;;;;5092625;28;20200;-77
2022/11/28 06:36:00;;;;;;;19.93;13.97;;;9.60;99.90;;;;;;5092567;28;20604;-77
2022/11/28 06:38:27;;;;;;;16.30;12.17;;;9.60;99.90;;;;;;5092715;28;20192;-77
2022/11/28 06:40:56;;;;;;;18.17;13.10;;;9.60;99.90;;;;;;5092877;28;20200;-77
2022/11/28 06:43:23;;;;;;;21.20;14.60;;;9.50;99.90;;;;;;5091475;28;20212;-76
2022/11/28 06:45:50;;;;;;;20.13;14.37;;;9.50;99.90;;;;;;5092025;28;20648;-76
2022/11/28 06:48:16;;;;;;;20.23;14.43;;;9.60;99.90;;;;;;5092448;28;20215;-77
2022/11/28 06:50:45;;;;;;;19.13;13.33;;;9.60;99.90;;;;;;5091568;28;20224;-78
2022/11/28 06:53:12;;;;;;;21.43;15.70;;;9.60;99.90;;;;;;5096905;28;20218;-77
2022/11/28 06:55:39;;;;;;;23.03;15.30;;;9.60;99.90;;;;;;5112745;28;20210;-76
2022/11/28 06:58:06;;;;;;;20.20;14.20;;;9.60;99.90;;;;;;5112419;28;20545;-77
2022/11/28 07:00:33;;;;;;;18.40;13.33;;;9.60;99.90;;;;;;5112560;28;20232;-77
2022/11/28 07:03:00;;;;;;;18.53;12.97;;;9.60;99.90;;;;;;5100982;28;20605;-76
2022/11/28 07:05:27;;;;;;;24.23;16.33;;;9.60;99.90;;;;;;5091538;28;20207;-77
2022/11/28 07:07:55;;;;;;;20.87;14.20;;;9.60;99.90;;;;;;5092289;28;20311;-77
2022/11/28 07:10:23;;;;;;;21.73;15.00;;;9.60;99.90;;;;;;5092149;28;20540;-75
2022/11/28 07:12:53;;;;;;;21.90;16.17;;;9.60;99.90;;;;;;5092340;28;20538;-76
2022/11/28 07:15:20;;;;;;;21.07;15.07;;;9.60;99.90;;;;;;5092285;28;20196;-77
2022/11/28 07:17:47;;;;;;;20.97;14.90;;;9.50;99.90;;;;;;5091771;28;20951;-76
2022/11/28 07:20:14;;;;;;;21.33;14.67;;;9.50;99.90;;;;;;5091739;28;20197;-76
2022/11/28 07:22:42;;;;;;;24.07;17.00;;;9.50;99.90;;;;;;5109644;28;20286;-76
2022/11/28 07:25:11;;;;;;;21.27;15.67;;;9.50;99.90;;;;;;5111525;28;20199;-76
2022/11/28 07:27:38;;;;;;;24.87;16.67;;;9.60;99.90;;;;;;5112432;28;20200;-76
2022/11/28 07:30:06;;;;;;;26.83;18.03;;;9.60;99.90;;;;;;5092717;28;20208;-77
2022/11/28 07:32:32;;;;;;;21.93;16.87;;;9.50;99.90;;;;;;5096309;28;20341;-77
2022/11/28 07:34:59;;;;;;;24.50;17.93;;;9.50;99.90;;;;;;5092376;28;20204;-76
2022/11/28 07:37:26;;;;;;;26.07;18.10;;;9.50;99.90;;;;;;5091849;28;20204;-77
2022/11/28 07:39:53;;;;;;;26.90;17.63;;;9.50;99.90;;;;;;5091284;28;20197;-77
2022/11/28 07:42:21;;;;;;;26.17;17.87;;;9.50;99.90;;;;;;5091794;28;20593;-77
2022/11/28 07:44:48;;;;;;;28.70;19.00;;;9.50;99.90;;;;;;5091643;28;20631;-76
2022/11/28 07:47:15;;;;;;;30.43;20.10;;;9.50;99.90;;;;;;5091536;28;20196;-76
2022/11/28 07:49:41;;;;;;;32.83;21.30;;;9.60;99.90;;;;;;5092172;28;20203;-77
2022/11/28 07:52:09;;;;;;;29.70;20.33;;;9.60;99.90;;;;;;5091436;28;20320;-76
2022/11/28 07:54:36;;;;;;;29.70;20.70;;;9.60;99.90;;;;;;5091366;28;20200;-76
2022/11/28 07:57:02;;;;;;;35.73;22.23;;;9.60;99.90;;;;;;5091871;28;20200;-77
2022/11/28 07:59:31;;;;;;;36.13;22.47;;;9.60;99.90;;;;;;5092297;22;20229;-76
2022/11/28 08:01:57;;;;;;;38.57;22.90;;;9.70;99.90;;;;;;5071300;28;20185;-76
2022/11/28 08:04:24;;;;;;;36.37;21.87;;;9.70;99.90;;;;;;5070627;28;20201;-77
2022/11/28 08:06:51;;;;;;;46.90;25.23;;;9.70;99.90;;;;;;5070929;28;20304;-78
2022/11/28 08:09:18;;;;;;;43.23;23.67;;;9.70;99.90;;;;;;5071401;28;20205;-76
2022/11/28 08:11:45;;;;;;;43.87;23.17;;;9.70;99.90;;;;;;5067763;28;20214;-77
2022/11/28 08:14:13;;;;;;;39.00;22.23;;;9.70;99.90;;;;;;5050826;28;20606;-75
2022/11/28 08:16:43;;;;;;;41.07;24.30;;;9.70;99.90;;;;;;5051506;28;20194;-78
2022/11/28 08:19:10;;;;;;;43.60;24.63;;;9.70;99.90;;;;;;5069139;28;20569;-77
2022/11/28 08:21:38;;;;;;;46.33;24.43;;;9.70;99.90;;;;;;5070883;28;20194;-76
2022/11/28 08:24:06;;;;;;;45.63;24.17;;;9.80;99.90;;;;;;5070940;28;20455;-76
2022/11/28 08:26:34;;;;;;;38.43;21.23;;;9.80;99.90;;;;;;5071089;28;20267;-78
2022/11/28 08:29:02;;;;;;;49.83;24.57;;;9.80;99.90;;;;;;5063638;28;20209;-78
2022/11/28 08:31:31;;;;;;;54.53;26.23;;;9.80;99.90;;;;;;5072469;28;20221;-78
2022/11/28 08:34:01;;;;;;;60.57;26.87;;;9.80;99.90;;;;;;5074106;28;20496;-77
2022/11/28 08:36:29;;;;;;;52.73;24.83;;;9.80;99.90;;;;;;5071308;28;20616;-78
2022/11/28 08:38:57;;;;;;;50.67;25.73;;;9.90;99.90;;;;;;5068921;28;20201;-78
2022/11/28 08:41:24;;;;;;;46.80;24.20;;;9.90;99.90;;;;;;5067203;28;20210;-77
2022/11/28 08:43:51;;;;;;;49.77;25.03;;;9.90;99.90;;;;;;5063626;28;20478;-78
2022/11/28 08:46:20;;;;;;;53.20;24.97;;;9.90;99.90;;;;;;5070708;28;20224;-78
2022/11/28 08:48:47;;;;;;;54.00;25.53;;;9.90;99.90;;;;;;5061030;28;20206;-78
2022/11/28 08:51:18;;;;;;;56.40;26.60;;;10.00;99.90;;;;;;5066621;28;20243;-79
2022/11/28 08:53:45;;;;;;;54.80;27.10;;;10.00;99.90;;;;;;5065913;28;20220;-78
2022/11/28 08:56:12;;;;;;;51.43;25.40;;;10.00;99.90;;;;;;5053626;28;20208;-78
2022/11/28 08:58:40;;;;;;;52.43;24.73;;;10.00;99.90;;;;;;5054181;28;20198;-77
2022/11/28 09:01:15;;;;;;;49.23;23.57;;;10.00;99.90;;;;;;5054894;28;20221;-78
2022/11/28 09:06:07;;;;;;;51.47;25.73;;;10.00;99.90;;;;;;5070435;22;20244;-78
2022/11/28 09:08:36;;;;;;;53.63;25.80;;;10.10;99.90;;;;;;5054162;28;20602;-79
2022/11/28 09:11:03;;;;;;;55.87;26.17;;;10.00;99.90;;;;;;5054333;28;20225;-79
2022/11/28 09:13:30;;;;;;;49.03;23.60;;;10.00;99.90;;;;;;5054397;28;20198;-79
2022/11/28 09:15:57;;;;;;;54.07;26.47;;;10.00;99.90;;;;;;5053941;28;20229;-78
2022/11/28 09:18:25;;;;;;;59.23;27.73;;;10.10;99.90;;;;;;5053408;28;20198;-78
2022/11/28 09:20:57;;;;;;;58.07;28.30;;;10.10;99.90;;;;;;5054639;28;20558;-78
2022/11/28 09:23:24;;;;;;;55.13;26.83;;;10.10;99.90;;;;;;5063132;28;20193;-79
2022/11/28 09:25:53;;;;;;;53.80;26.23;;;10.10;99.90;;;;;;5072846;28;20601;-78
2022/11/28 09:28:19;;;;;;;53.60;24.67;;;10.10;99.90;;;;;;5061139;28;20202;-78
2022/11/28 09:30:46;;;;;;;53.17;26.80;;;10.10;99.90;;;;;;5054275;28;20268;-78
2022/11/28 09:33:13;;;;;;;47.00;24.40;;;10.20;99.90;;;;;;5053457;28;20213;-78
2022/11/28 09:35:40;;;;;;;51.87;24.13;;;10.20;99.90;;;;;;5073663;28;20208;-78
2022/11/28 09:38:07;;;;;;;57.90;27.67;;;10.20;99.90;;;;;;5072833;28;20204;-77
2022/11/28 09:40:38;;;;;;;64.97;29.20;;;10.20;99.90;;;;;;5066685;28;20212;-77
2022/11/28 09:43:15;;;;;;;57.43;27.73;;;10.30;99.90;;;;;;5053318;28;20297;-77
2022/11/28 09:45:44;;;;;;;54.73;25.40;;;10.30;99.90;;;;;;5062801;28;20248;-77
2022/11/28 09:48:24;;;;;;;54.53;27.77;;;10.40;99.90;;;;;;5073610;28;20201;-79
2022/11/28 09:50:53;;;;;;;60.50;28.47;;;10.40;99.90;;;;;;5053619;28;20224;-78
2022/11/28 09:53:25;;;;;;;58.90;28.60;;;10.50;99.90;;;;;;5052928;28;20209;-81
2022/11/28 09:55:55;;;;;;;60.17;27.73;;;10.50;99.90;;;;;;5053737;28;20642;-79
2022/11/28 09:58:30;;;;;;;52.90;25.73;;;10.50;99.90;;;;;;5062027;28;20208;-78
2022/11/28 10:01:05;;;;;;;56.73;27.57;;;10.50;99.90;;;;;;5065824;28;20205;-78
2022/11/28 10:03:48;;;;;;;58.77;26.03;;;10.50;99.90;;;;;;5063926;28;20288;-80
2022/11/28 10:06:20;;;;;;;48.93;24.30;;;10.60;99.90;;;;;;5063471;28;20208;-78
2022/11/28 10:09:08;;;;;;;44.67;23.37;;;10.60;99.90;;;;;;5067254;28;20209;-78
2022/11/28 10:11:46;;;;;;;47.60;25.70;;;10.60;99.90;;;;;;5070083;28;20241;-78
2022/11/28 10:14:35;;;;;;;50.83;24.27;;;10.70;99.90;;;;;;5052502;28;20209;-80
2022/11/28 10:17:14;;;;;;;51.33;24.53;;;10.70;99.90;;;;;;5053202;28;20703;-78
2022/11/28 10:19:47;;;;;;;47.20;23.17;;;10.70;99.90;;;;;;5053384;28;20190;-79
2022/11/28 10:22:18;;;;;;;47.77;22.57;;;10.80;99.90;;;;;;5052631;28;20292;-79
2022/11/28 10:24:52;;;;;;;53.83;24.20;;;10.80;99.90;;;;;;5053427;28;20186;-79
2022/11/28 10:27:19;;;;;;;57.83;27.23;;;10.80;99.90;;;;;;5052932;28;20201;-78
2022/11/28 10:29:50;;;;;;;50.13;24.70;;;10.80;99.90;;;;;;5052873;28;20202;-79
2022/11/28 10:32:20;;;;;;;52.37;24.93;;;10.80;99.90;;;;;;5052178;28;20217;-78
2022/11/28 10:34:53;;;;;;;42.90;21.10;;;10.90;99.90;;;;;;5051527;28;20212;-78
2022/11/28 10:37:24;;;;;;;52.47;24.87;;;10.90;99.90;;;;;;5052522;28;20620;-76
2022/11/28 10:39:52;;;;;;;49.50;24.03;;;10.90;99.90;;;;;;5052563;28;20251;-77
2022/11/28 10:42:26;;;;;;;54.77;24.30;;;10.90;99.90;;;;;;5052006;28;20587;-78
2022/11/28 10:45:15;;;;;;;61.13;26.87;;;11.00;99.90;;;;;;5052268;28;20358;-77
2022/11/28 10:47:55;;;;;;;43.63;22.20;;;10.90;99.90;;;;;;5052577;28;20205;-79
2022/11/28 10:50:29;;;;;;;46.60;20.00;;;10.90;99.90;;;;;;5051889;28;20285;-79
2022/11/28 10:53:01;;;;;;;53.57;24.27;;;10.90;99.90;;;;;;5052398;28;20703;-78
2022/11/28 10:55:40;;;;;;;49.57;24.43;;;11.00;99.90;;;;;;5051470;28;20259;-77
2022/11/28 10:58:18;;;;;;;50.67;23.17;;;11.00;99.90;;;;;;5052751;28;20200;-76
2022/11/28 11:00:48;;;;;;;53.93;23.90;;;11.00;99.90;;;;;;5052813;28;20206;-78
2022/11/28 11:03:17;;;;;;;58.40;25.30;;;11.00;99.90;;;;;;5051682;28;20251;-78
2022/11/28 11:05:45;;;;;;;52.43;24.00;;;11.00;99.90;;;;;;5051902;28;20340;-79
2022/11/28 11:08:19;;;;;;;46.53;23.07;;;11.00;99.90;;;;;;5052090;28;20755;-77
2022/11/28 11:10:49;;;;;;;43.50;21.13;;;11.10;99.90;;;;;;5052229;28;20243;-79
2022/11/28 11:13:19;;;;;;;39.73;21.37;;;11.10;99.90;;;;;;5052022;28;20248;-77
2022/11/28 11:15:51;;;;;;;45.83;22.23;;;11.10;99.90;;;;;;5051974;28;20241;-79
2022/11/28 11:18:24;;;;;;;46.93;21.93;;;11.20;99.90;;;;;;5051393;28;20197;-79
2022/11/28 11:20:51;;;;;;;39.77;20.73;;;11.20;99.90;;;;;;5052026;28;20233;-77
2022/11/28 11:23:20;;;;;;;38.37;20.40;;;11.20;99.90;;;;;;5072392;22;20247;-78
2022/11/28 11:25:51;;;;;;;51.90;23.53;;;11.30;99.90;;;;;;5061221;28;20205;-79
2022/11/28 11:28:43;;;;;;;55.73;23.17;;;11.40;99.90;;;;;;5051825;28;20288;-79
2022/11/28 11:31:31;;;;;;;40.03;20.33;;;11.40;99.90;;;;;;5051359;28;20775;-80
2022/11/28 11:34:05;;;;;;;55.70;24.17;;;11.40;99.90;;;;;;5056687;28;20189;-80
2022/11/28 11:36:34;;;;;;;53.83;23.80;;;11.40;99.90;;;;;;5058699;28;20198;-80
2022/11/28 11:39:07;;;;;;;49.83;22.47;;;11.40;99.90;;;;;;5065389;28;20197;-78
2022/11/28 11:41:34;;;;;;;40.77;19.20;;;11.40;99.90;;;;;;5064895;28;20197;-79
2022/11/28 11:44:27;;;;;;;39.10;18.57;;;11.50;99.90;;;;;;5064017;28;20608;-77
2022/11/28 11:46:57;;;;;;;36.93;18.03;;;11.50;99.90;;;;;;5041132;28;20198;-79
2022/11/28 11:49:29;;;;;;;40.77;17.77;;;11.50;99.90;;;;;;5043182;28;20591;-79
2022/11/28 11:51:57;;;;;;;35.30;17.63;;;11.60;99.90;;;;;;5035661;28;20309;-80
2022/11/28 11:54:24;;;;;;;36.40;17.60;;;11.70;99.90;;;;;;5041717;28;20190;-80
2022/11/28 11:56:51;;;;;;;35.80;16.33;;;11.80;99.90;;;;;;5049183;28;20396;-80
2022/11/28 11:59:23;;;;;;;37.13;16.13;;;11.90;99.90;;;;;;5051248;28;20205;-78
2022/11/28 12:01:55;;;;;;;37.77;14.27;;;12.00;99.90;;;;;;5050958;28;20205;-79
2022/11/28 12:04:28;;;;;;;31.90;14.70;;;12.10;99.90;;;;;;5050817;28;20198;-80
2022/11/28 12:07:00;;;;;;;28.70;12.90;;;12.20;99.90;;;;;;5051628;28;20194;-79
2022/11/28 12:09:31;;;;;;;31.33;13.57;;;12.10;99.90;;;;;;5055659;28;20248;-79
2022/11/28 12:12:05;;;;;;;35.60;12.90;;;12.10;99.90;;;;;;5054982;28;20230;-79
2022/11/28 12:14:34;;;;;;;30.97;10.70;;;12.10;99.90;;;;;;5046176;28;20191;-79
2022/11/28 12:17:14;;;;;;;39.00;9.60;;;12.10;99.90;;;;;;5035466;28;20248;-79
2022/11/28 12:19:56;;;;;;;34.83;9.20;;;12.00;99.90;;;;;;5035339;28;20206;-78
2022/11/28 12:22:31;;;;;;;29.87;7.63;;;12.00;99.90;;;;;;5034386;28;20662;-79
2022/11/28 12:25:10;;;;;;;40.77;9.30;;;11.90;99.90;;;;;;5047272;28;20209;-78
2022/11/28 12:28:04;;;;;;;37.33;7.63;;;11.90;99.90;;;;;;5051090;28;20194;-80
2022/11/28 12:30:42;;;;;;;31.80;7.93;;;11.80;99.90;;;;;;5042219;28;20195;-79
2022/11/28 12:33:27;;;;;;;29.17;6.07;;;11.70;99.90;;;;;;5054780;28;20217;-79
2022/11/28 12:36:06;;;;;;;30.90;8.20;;;11.60;99.90;;;;;;5051595;28;20201;-79
2022/11/28 12:38:55;;;;;;;31.80;7.13;;;11.60;99.90;;;;;;5034953;28;20289;-79
2022/11/28 12:41:39;;;;;;;22.30;6.27;;;11.60;99.90;;;;;;5034930;28;20195;-79
2022/11/28 12:44:19;;;;;;;19.83;5.13;;;11.60;99.90;;;;;;5043545;28;20201;-80
2022/11/28 12:46:52;;;;;;;26.20;6.63;;;11.50;99.90;;;;;;5044567;28;20654;-80
2022/11/28 12:49:28;;;;;;;23.40;6.13;;;11.50;99.90;;;;;;5034563;28;20202;-80
2022/11/28 12:52:07;;;;;;;19.77;5.27;;;11.50;99.90;;;;;;5043481;28;20209;-80
2022/11/28 12:55:03;;;;;;;14.30;5.33;;;11.50;99.90;;;;;;5035474;28;20610;-81